createdAt,value
2019-03-30T00:00:44.832Z,90.16
2019-03-30T00:01:44.802Z,91.09
2019-03-30T00:02:44.787Z,90.67
2019-03-30T00:03:44.781Z,90.78
2019-03-30T00:04:44.762Z,90.78
2019-03-30T00:05:44.770Z,90.88
2019-03-30T00:06:44.742Z,90.99
2019-03-30T00:07:44.731Z,90.67
2019-03-30T00:08:44.725Z,90.57
2019-03-30T00:09:44.716Z,90.47
2019-03-30T00:10:44.720Z,90.51
2019-03-30T00:11:44.689Z,90.51
2019-03-30T00:12:44.684Z,90.41
2019-03-30T00:13:44.665Z,90.88
2019-03-30T00:14:44.654Z,90.92
2019-03-30T00:15:44.656Z,91.34
2019-03-30T00:16:44.636Z,91.54
2019-03-30T00:17:44.620Z,91.44
2019-03-30T00:18:44.607Z,91.03
2019-03-30T00:19:44.603Z,91.13
2019-03-30T00:20:44.606Z,90.92
2019-03-30T00:21:44.576Z,91.03
2019-03-30T00:22:44.566Z,91.03
2019-03-30T00:23:44.554Z,90.61
2019-03-30T00:24:44.548Z,91.24
2019-03-30T00:25:44.554Z,91.44
2019-03-30T00:26:44.527Z,90.51
2019-03-30T00:27:44.514Z,90.92
2019-03-30T00:28:44.513Z,91.13
2019-03-30T00:29:44.498Z,91.13
2019-03-30T00:30:44.493Z,91.34
2019-03-30T00:31:44.466Z,91.34
2019-03-30T00:32:44.456Z,91.03
2019-03-30T00:33:44.442Z,91.54
2019-03-30T00:34:44.431Z,91.89
2019-03-30T00:35:44.447Z,91.34
2019-03-30T00:36:44.409Z,91.44
2019-03-30T00:37:44.401Z,91.54
2019-03-30T00:38:44.389Z,91.85
2019-03-30T00:39:44.388Z,92.00
2019-03-30T00:40:44.358Z,91.44
2019-03-30T00:41:44.373Z,91.58
2019-03-30T00:42:44.353Z,91.79
2019-03-30T00:43:44.335Z,91.58
2019-03-30T00:44:44.317Z,91.58
2019-03-30T00:45:44.376Z,91.89
2019-03-30T00:46:44.313Z,91.03
2019-03-30T00:47:44.283Z,90.86
2019-03-30T00:48:44.272Z,90.92
2019-03-30T00:49:49.708Z,91.58
2019-03-30T00:50:45.251Z,91.54
2019-03-30T00:51:44.262Z,91.24
2019-03-30T00:52:44.225Z,91.48
2019-03-30T00:53:44.226Z,91.07
2019-03-30T00:54:44.211Z,91.79
2019-03-30T00:55:44.192Z,91.69
2019-03-30T00:56:44.202Z,91.48
2019-03-30T00:57:44.199Z,91.38
2019-03-30T00:58:44.161Z,91.38
2019-03-30T00:59:44.163Z,91.38
2019-03-30T01:00:44.140Z,91.89
2019-03-30T01:01:44.142Z,91.48
2019-03-30T01:02:44.118Z,91.79
2019-03-30T01:03:44.105Z,91.79
2019-03-30T01:04:44.094Z,91.69
2019-03-30T01:05:44.084Z,91.79
2019-03-30T01:06:44.094Z,91.48
2019-03-30T01:07:44.057Z,91.79
2019-03-30T01:08:44.053Z,91.79
2019-03-30T01:09:44.035Z,91.89
2019-03-30T01:10:44.024Z,91.48
2019-03-30T01:11:44.043Z,91.48
2019-03-30T01:12:44.003Z,92.00
2019-03-30T01:13:43.992Z,91.89
2019-03-30T01:14:43.981Z,91.89
2019-03-30T01:15:43.968Z,91.89
2019-03-30T01:16:43.961Z,92.00
2019-03-30T01:17:44.039Z,91.69
2019-03-30T01:18:43.932Z,91.73
2019-03-30T01:19:43.924Z,91.94
2019-03-30T01:20:43.914Z,91.94
2019-03-30T01:21:43.899Z,92.35
2019-03-30T01:22:43.914Z,92.25
2019-03-30T01:23:43.877Z,92.14
2019-03-30T01:24:43.867Z,92.35
2019-03-30T01:25:43.857Z,92.04
2019-03-30T01:26:43.850Z,91.94
2019-03-30T01:27:43.876Z,91.42
2019-03-30T01:28:43.823Z,91.42
2019-03-30T01:29:43.820Z,91.01
2019-03-30T01:30:43.796Z,91.01
2019-03-30T01:31:43.788Z,90.70
2019-03-30T01:32:43.797Z,90.91
2019-03-30T01:33:43.766Z,91.11
2019-03-30T01:34:43.759Z,90.70
2019-03-30T01:35:43.744Z,90.49
2019-03-30T01:36:43.735Z,90.91
2019-03-30T01:37:43.744Z,90.59
2019-03-30T01:38:43.710Z,90.39
2019-03-30T01:39:43.696Z,90.43
2019-03-30T01:40:43.692Z,90.59
2019-03-30T01:41:43.674Z,90.64
2019-03-30T01:42:43.679Z,90.64
2019-03-30T01:43:43.654Z,91.16
2019-03-30T01:44:43.645Z,91.01
2019-03-30T01:45:43.634Z,90.43
2019-03-30T01:46:43.617Z,89.50
2019-03-30T01:47:43.627Z,89.19
2019-03-30T01:48:43.592Z,89.19
2019-03-30T01:49:43.584Z,88.47
2019-03-30T01:50:43.580Z,88.68
2019-03-30T01:51:43.564Z,88.78
2019-03-30T01:52:43.567Z,88.71
2019-03-30T01:53:43.539Z,88.61
2019-03-30T01:54:43.533Z,88.61
2019-03-30T01:55:43.517Z,88.51
2019-03-30T01:56:43.506Z,88.71
2019-03-30T01:57:43.514Z,89.03
2019-03-30T01:58:43.484Z,89.34
2019-03-30T01:59:43.475Z,89.17
2019-03-30T02:00:43.470Z,89.07
2019-03-30T02:01:43.452Z,89.03
2019-03-30T02:02:43.455Z,88.96
2019-03-30T02:03:43.427Z,89.17
2019-03-30T02:04:43.432Z,89.48
2019-03-30T02:05:43.402Z,90.41
2019-03-30T02:06:43.394Z,90.83
2019-03-30T02:07:43.410Z,91.03
2019-03-30T02:08:43.369Z,90.93
2019-03-30T02:09:43.362Z,90.83
2019-03-30T02:10:43.348Z,90.93
2019-03-30T02:11:43.343Z,91.34
2019-03-30T02:12:43.342Z,91.44
2019-03-30T02:13:43.333Z,91.44
2019-03-30T02:14:43.305Z,91.34
2019-03-30T02:15:43.330Z,91.59
2019-03-30T02:16:43.279Z,91.59
2019-03-30T02:17:43.298Z,90.77
2019-03-30T02:18:43.296Z,90.56
2019-03-30T02:19:43.255Z,91.49
2019-03-30T02:20:43.238Z,90.04
2019-03-30T02:21:43.223Z,90.04
2019-03-30T02:22:43.214Z,90.04
2019-03-30T02:23:43.228Z,90.14
2019-03-30T02:24:43.200Z,89.73
2019-03-30T02:25:43.186Z,89.52
2019-03-30T02:26:43.178Z,90.19
2019-03-30T02:27:43.159Z,90.08
2019-03-30T02:28:43.176Z,89.94
2019-03-30T02:29:43.132Z,89.98
2019-03-30T02:30:43.126Z,90.08
2019-03-30T02:31:43.129Z,90.19
2019-03-30T02:32:43.102Z,90.08
2019-03-30T02:33:43.109Z,90.08
2019-03-30T02:34:43.089Z,90.19
2019-03-30T02:35:43.068Z,90.08
2019-03-30T02:36:43.075Z,90.39
2019-03-30T02:37:43.048Z,89.98
2019-03-30T02:38:43.051Z,90.19
2019-03-30T02:39:43.044Z,91.53
2019-03-30T02:40:43.021Z,90.80
2019-03-30T02:41:43.009Z,90.60
2019-03-30T02:42:43.003Z,90.39
2019-03-30T02:43:43.007Z,90.39
2019-03-30T02:44:42.984Z,90.50
2019-03-30T02:45:42.961Z,91.26
2019-03-30T02:46:42.952Z,91.11
2019-03-30T02:47:42.950Z,91.01
2019-03-30T02:48:42.942Z,90.70
2019-03-30T02:49:42.910Z,90.39
2019-03-30T02:50:49.975Z,90.29
2019-03-30T02:51:43.891Z,90.39
2019-03-30T02:52:42.883Z,90.29
2019-03-30T02:53:42.884Z,90.60
2019-03-30T02:54:42.861Z,90.60
2019-03-30T02:55:42.843Z,90.50
2019-03-30T02:56:42.833Z,90.29
2019-03-30T02:57:42.829Z,90.19
2019-03-30T02:58:42.825Z,90.08
2019-03-30T02:59:42.803Z,90.39
2019-03-30T03:00:42.786Z,90.29
2019-03-30T03:01:42.783Z,90.33
2019-03-30T03:02:42.762Z,90.50
2019-03-30T03:03:42.779Z,90.12
2019-03-30T03:04:42.763Z,89.77
2019-03-30T03:05:42.785Z,89.71
2019-03-30T03:06:42.725Z,89.29
2019-03-30T03:07:42.714Z,89.25
2019-03-30T03:08:42.717Z,89.15
2019-03-30T03:09:42.685Z,89.29
2019-03-30T03:10:42.736Z,89.04
2019-03-30T03:11:42.662Z,89.04
2019-03-30T03:12:42.651Z,89.19
2019-03-30T03:13:42.661Z,88.98
2019-03-30T03:14:42.630Z,89.50
2019-03-30T03:15:42.622Z,89.19
2019-03-30T03:16:42.685Z,89.19
2019-03-30T03:17:42.597Z,89.19
2019-03-30T03:18:42.620Z,89.50
2019-03-30T03:19:42.577Z,89.50
2019-03-30T03:20:42.569Z,89.19
2019-03-30T03:21:42.554Z,88.98
2019-03-30T03:22:42.549Z,89.40
2019-03-30T03:23:42.563Z,90.02
2019-03-30T03:24:42.518Z,89.71
2019-03-30T03:25:42.514Z,89.50
2019-03-30T03:26:42.497Z,89.40
2019-03-30T03:27:42.487Z,89.29
2019-03-30T03:28:42.507Z,89.19
2019-03-30T03:29:43.962Z,89.34
2019-03-30T03:30:42.451Z,89.23
2019-03-30T03:31:42.446Z,89.34
2019-03-30T03:32:42.442Z,89.23
2019-03-30T03:33:42.437Z,89.13
2019-03-30T03:34:42.412Z,89.44
2019-03-30T03:35:42.402Z,89.44
2019-03-30T03:36:42.386Z,89.34
2019-03-30T03:37:46.060Z,89.54
2019-03-30T03:38:42.382Z,89.92
2019-03-30T03:39:42.360Z,90.23
2019-03-30T03:40:42.347Z,90.16
2019-03-30T03:41:42.330Z,90.26
2019-03-30T03:42:42.320Z,90.47
2019-03-30T03:43:42.338Z,90.06
2019-03-30T03:44:42.295Z,89.65
2019-03-30T03:45:42.289Z,89.86
2019-03-30T03:46:42.279Z,89.65
2019-03-30T03:47:42.267Z,90.26
2019-03-30T03:48:42.278Z,89.86
2019-03-30T03:49:42.245Z,89.65
2019-03-30T03:50:42.406Z,89.86
2019-03-30T03:51:42.229Z,89.86
2019-03-30T03:52:42.238Z,90.06
2019-03-30T03:53:42.210Z,91.09
2019-03-30T03:54:42.188Z,91.20
2019-03-30T03:55:42.212Z,92.55
2019-03-30T03:56:42.172Z,93.89
2019-03-30T03:57:42.153Z,95.09
2019-03-30T03:58:42.152Z,95.09
2019-03-30T03:59:42.146Z,95.61
2019-03-30T04:00:42.119Z,95.71
2019-03-30T04:01:42.115Z,95.61
2019-03-30T04:02:42.092Z,95.81
2019-03-30T04:03:42.094Z,95.19
2019-03-30T04:04:42.105Z,94.68
2019-03-30T04:05:42.071Z,94.63
2019-03-30T04:06:42.046Z,94.63
2019-03-30T04:07:42.055Z,94.63
2019-03-30T04:08:42.035Z,94.53
2019-03-30T04:09:42.033Z,94.98
2019-03-30T04:10:42.004Z,94.43
2019-03-30T04:11:42.005Z,94.32
2019-03-30T04:12:41.984Z,93.70
2019-03-30T04:13:41.983Z,94.01
2019-03-30T04:14:41.986Z,93.39
2019-03-30T04:15:41.951Z,93.02
2019-03-30T04:16:41.944Z,92.97
2019-03-30T04:17:41.929Z,92.19
2019-03-30T04:18:41.915Z,91.16
2019-03-30T04:19:41.923Z,90.64
2019-03-30T04:20:41.925Z,90.64
2019-03-30T04:21:44.149Z,90.44
2019-03-30T04:22:41.873Z,90.23
2019-03-30T04:23:41.858Z,90.58
2019-03-30T04:24:41.898Z,91.09
2019-03-30T04:25:41.846Z,91.30
2019-03-30T04:26:41.834Z,91.51
2019-03-30T04:27:41.815Z,91.93
2019-03-30T04:28:41.803Z,91.93
2019-03-30T04:29:41.816Z,92.03
2019-03-30T04:30:41.793Z,91.88
2019-03-30T04:31:41.772Z,91.57
2019-03-30T04:32:41.757Z,91.36
2019-03-30T04:33:41.750Z,91.30
2019-03-30T04:34:41.759Z,91.20
2019-03-30T04:35:41.732Z,90.99
2019-03-30T04:36:41.721Z,90.99
2019-03-30T04:37:41.706Z,91.20
2019-03-30T04:38:41.690Z,90.52
2019-03-30T04:39:41.704Z,90.78
2019-03-30T04:40:41.669Z,91.14
2019-03-30T04:41:41.663Z,90.68
2019-03-30T04:42:41.651Z,90.99
2019-03-30T04:43:41.635Z,91.24
2019-03-30T04:44:41.640Z,91.45
2019-03-30T04:45:41.621Z,91.66
2019-03-30T04:46:41.609Z,91.66
2019-03-30T04:47:41.592Z,91.76
2019-03-30T04:48:41.581Z,91.66
2019-03-30T04:49:41.586Z,91.45
2019-03-30T04:50:41.554Z,91.76
2019-03-30T04:51:41.550Z,92.07
2019-03-30T04:52:41.532Z,92.18
2019-03-30T04:53:41.524Z,92.38
2019-03-30T04:54:41.532Z,92.28
2019-03-30T04:55:41.506Z,91.86
2019-03-30T04:56:41.493Z,91.66
2019-03-30T04:57:41.502Z,91.35
2019-03-30T04:58:41.473Z,91.35
2019-03-30T04:59:41.457Z,91.24
2019-03-30T05:00:41.499Z,91.55
2019-03-30T05:01:41.438Z,91.76
2019-03-30T05:02:41.443Z,90.93
2019-03-30T05:03:41.416Z,90.93
2019-03-30T05:04:41.407Z,91.03
2019-03-30T05:05:43.031Z,91.14
2019-03-30T05:06:41.388Z,90.62
2019-03-30T05:07:41.380Z,90.31
2019-03-30T05:08:41.359Z,90.52
2019-03-30T05:09:41.343Z,90.20
2019-03-30T05:10:41.349Z,89.89
2019-03-30T05:11:41.320Z,89.79
2019-03-30T05:12:41.312Z,89.69
2019-03-30T05:13:41.306Z,90.14
2019-03-30T05:14:41.298Z,90.25
2019-03-30T05:15:41.299Z,90.35
2019-03-30T05:16:41.265Z,90.66
2019-03-30T05:17:47.517Z,90.66
2019-03-30T05:18:42.245Z,90.35
2019-03-30T05:19:41.244Z,90.56
2019-03-30T05:20:41.253Z,90.77
2019-03-30T05:21:41.210Z,90.45
2019-03-30T05:22:41.198Z,90.62
2019-03-30T05:23:41.297Z,90.45
2019-03-30T05:24:41.178Z,90.45
2019-03-30T05:25:41.292Z,90.25
2019-03-30T05:26:41.156Z,91.08
2019-03-30T05:27:41.144Z,90.93
2019-03-30T05:28:41.130Z,91.14
2019-03-30T05:29:41.123Z,91.24
2019-03-30T05:30:41.124Z,91.55
2019-03-30T05:31:41.097Z,91.14
2019-03-30T05:32:41.895Z,91.14
2019-03-30T05:33:41.075Z,91.14
2019-03-30T05:34:41.062Z,90.41
2019-03-30T05:35:41.070Z,90.41
2019-03-30T05:36:41.046Z,91.35
2019-03-30T05:37:41.031Z,91.24
2019-03-30T05:38:41.029Z,91.24
2019-03-30T05:39:41.009Z,90.52
2019-03-30T05:40:41.011Z,90.20
2019-03-30T05:41:40.985Z,90.10
2019-03-30T05:42:40.974Z,90.00
2019-03-30T05:43:40.974Z,90.10
2019-03-30T05:44:40.952Z,90.41
2019-03-30T05:45:40.972Z,90.31
2019-03-30T05:46:40.932Z,90.10
2019-03-30T05:47:41.011Z,90.52
2019-03-30T05:48:40.906Z,90.31
2019-03-30T05:49:40.896Z,90.26
2019-03-30T05:50:40.890Z,90.31
2019-03-30T05:51:40.894Z,90.37
2019-03-30T05:52:40.870Z,90.37
2019-03-30T05:53:40.867Z,90.26
2019-03-30T05:54:40.838Z,90.89
2019-03-30T05:55:40.833Z,90.47
2019-03-30T05:56:40.867Z,91.41
2019-03-30T05:57:40.818Z,90.58
2019-03-30T05:58:40.798Z,90.47
2019-03-30T05:59:40.782Z,91.30
2019-03-30T06:00:40.900Z,91.41
2019-03-30T06:01:40.762Z,91.51
2019-03-30T06:02:40.754Z,91.30
2019-03-30T06:03:40.748Z,91.61
2019-03-30T06:04:40.732Z,91.47
2019-03-30T06:05:40.757Z,91.16
2019-03-30T06:06:40.712Z,90.74
2019-03-30T06:07:40.692Z,91.26
2019-03-30T06:08:40.686Z,90.33
2019-03-30T06:09:40.671Z,90.33
2019-03-30T06:10:40.664Z,91.01
2019-03-30T06:11:40.673Z,91.26
2019-03-30T06:12:40.658Z,91.53
2019-03-30T06:13:40.624Z,91.32
2019-03-30T06:14:40.615Z,91.11
2019-03-30T06:15:40.610Z,90.91
2019-03-30T06:16:40.609Z,91.28
2019-03-30T06:17:40.578Z,90.80
2019-03-30T06:18:40.570Z,90.35
2019-03-30T06:19:40.562Z,91.28
2019-03-30T06:20:40.555Z,91.28
2019-03-30T06:21:40.558Z,90.25
2019-03-30T06:22:40.970Z,90.10
2019-03-30T06:23:40.514Z,90.20
2019-03-30T06:24:40.508Z,90.00
2019-03-30T06:25:40.489Z,90.00
2019-03-30T06:26:40.514Z,90.47
2019-03-30T06:27:40.474Z,89.95
2019-03-30T06:28:40.459Z,89.86
2019-03-30T06:29:40.447Z,89.61
2019-03-30T06:30:40.440Z,89.81
2019-03-30T06:31:40.451Z,89.40
2019-03-30T06:32:40.422Z,89.40
2019-03-30T06:33:40.415Z,89.61
2019-03-30T06:34:40.393Z,88.95
2019-03-30T06:35:40.394Z,88.84
2019-03-30T06:36:40.399Z,88.98
2019-03-30T06:37:40.356Z,89.05
2019-03-30T06:38:40.356Z,88.74
2019-03-30T06:39:40.343Z,89.05
2019-03-30T06:40:40.335Z,89.25
2019-03-30T06:41:40.348Z,89.56
2019-03-30T06:42:40.303Z,89.29
2019-03-30T06:43:40.292Z,89.50
2019-03-30T06:44:40.278Z,89.36
2019-03-30T06:45:40.268Z,89.36
2019-03-30T06:46:40.281Z,89.56
2019-03-30T06:47:40.246Z,89.36
2019-03-30T06:48:40.233Z,89.15
2019-03-30T06:49:40.225Z,89.01
2019-03-30T06:50:40.214Z,89.07
2019-03-30T06:51:40.223Z,88.45
2019-03-30T06:52:42.798Z,88.76
2019-03-30T06:53:41.184Z,87.83
2019-03-30T06:54:40.172Z,87.42
2019-03-30T06:55:40.166Z,87.17
2019-03-30T06:56:40.164Z,86.45
2019-03-30T06:57:40.233Z,86.97
2019-03-30T06:58:40.123Z,86.24
2019-03-30T06:59:40.112Z,86.61
2019-03-30T07:00:40.112Z,86.52
2019-03-30T07:01:40.112Z,86.68
2019-03-30T07:02:40.074Z,86.06
2019-03-30T07:03:40.068Z,85.75
2019-03-30T07:04:40.065Z,85.44
2019-03-30T07:05:40.043Z,85.55
2019-03-30T07:06:40.056Z,85.34
2019-03-30T07:07:40.032Z,85.20
2019-03-30T07:08:40.026Z,85.10
2019-03-30T07:09:39.996Z,85.51
2019-03-30T07:10:39.994Z,85.20
2019-03-30T07:11:39.996Z,85.30
2019-03-30T07:12:39.974Z,84.99
2019-03-30T07:13:39.955Z,84.54
2019-03-30T07:14:39.947Z,85.06
2019-03-30T07:15:39.932Z,84.54
2019-03-30T07:16:39.936Z,84.50
2019-03-30T07:17:39.921Z,84.20
2019-03-30T07:18:39.897Z,83.89
2019-03-30T07:19:39.890Z,84.05
2019-03-30T07:20:39.881Z,83.64
2019-03-30T07:21:39.934Z,83.75
2019-03-30T07:22:39.870Z,83.29
2019-03-30T07:23:39.839Z,83.09
2019-03-30T07:24:39.835Z,83.09
2019-03-30T07:25:39.823Z,82.54
2019-03-30T07:26:39.814Z,82.64
2019-03-30T07:27:39.829Z,82.43
2019-03-30T07:28:39.790Z,81.99
2019-03-30T07:29:39.779Z,81.41
2019-03-30T07:30:39.776Z,82.23
2019-03-30T07:31:39.769Z,82.13
2019-03-30T07:32:39.761Z,81.62
2019-03-30T07:33:39.730Z,80.86
2019-03-30T07:34:41.710Z,81.78
2019-03-30T07:35:39.714Z,81.02
2019-03-30T07:36:39.692Z,80.76
2019-03-30T07:37:39.774Z,81.02
2019-03-30T07:38:39.672Z,80.72
2019-03-30T07:39:39.668Z,80.72
2019-03-30T07:40:39.658Z,80.00
2019-03-30T07:41:39.648Z,79.90
2019-03-30T07:42:39.643Z,79.75
2019-03-30T07:43:39.620Z,79.14
2019-03-30T07:44:39.639Z,79.72
2019-03-30T07:45:39.599Z,78.80
2019-03-30T07:46:39.583Z,79.00
2019-03-30T07:47:39.594Z,78.35
2019-03-30T07:48:39.567Z,78.05
2019-03-30T07:49:39.555Z,77.73
2019-03-30T07:50:39.577Z,78.05
2019-03-30T07:51:39.538Z,77.23
2019-03-30T07:52:39.534Z,77.53
2019-03-30T07:53:44.816Z,77.70
2019-03-30T07:54:40.498Z,76.78
2019-03-30T07:55:39.479Z,76.37
2019-03-30T07:56:39.475Z,76.47
2019-03-30T07:57:39.477Z,76.47
2019-03-30T07:58:39.448Z,76.54
2019-03-30T07:59:39.437Z,76.43
2019-03-30T08:00:39.432Z,75.93
2019-03-30T08:01:39.418Z,76.23
2019-03-30T08:02:39.423Z,75.62
2019-03-30T08:03:39.391Z,75.89
2019-03-30T08:04:39.386Z,75.79
2019-03-30T08:05:39.372Z,75.17
2019-03-30T08:06:39.363Z,74.87
2019-03-30T08:07:39.382Z,74.46
2019-03-30T08:08:39.352Z,74.66
2019-03-30T08:09:39.327Z,74.52
2019-03-30T08:10:39.316Z,74.63
2019-03-30T08:11:39.297Z,75.14
2019-03-30T08:12:39.309Z,74.11
2019-03-30T08:13:39.280Z,74.02
2019-03-30T08:14:39.287Z,73.98
2019-03-30T08:15:39.266Z,73.88
2019-03-30T08:16:39.250Z,73.06
2019-03-30T08:17:39.242Z,73.06
2019-03-30T08:18:39.250Z,72.72
2019-03-30T08:19:39.225Z,72.82
2019-03-30T08:20:39.206Z,72.92
2019-03-30T08:21:39.189Z,72.92
2019-03-30T08:22:39.177Z,72.92
2019-03-30T08:23:40.471Z,72.99
2019-03-30T08:24:39.198Z,72.48
2019-03-30T08:25:39.142Z,72.48
2019-03-30T08:26:39.130Z,72.17
2019-03-30T08:27:39.118Z,71.94
2019-03-30T08:28:39.143Z,71.63
2019-03-30T08:29:39.663Z,71.63
2019-03-30T08:30:39.091Z,71.12
2019-03-30T08:31:39.081Z,71.02
2019-03-30T08:32:39.067Z,71.53
2019-03-30T08:33:39.052Z,70.78
2019-03-30T08:34:39.063Z,70.78
2019-03-30T08:35:39.031Z,71.09
2019-03-30T08:36:39.016Z,70.34
2019-03-30T08:37:39.010Z,70.27
2019-03-30T08:38:39.072Z,69.93
2019-03-30T08:39:38.999Z,69.93
2019-03-30T08:40:38.978Z,69.73
2019-03-30T08:41:38.967Z,69.42
2019-03-30T08:42:38.953Z,69.56
2019-03-30T08:43:38.944Z,70.14
2019-03-30T08:44:38.984Z,69.83
2019-03-30T08:45:38.918Z,69.42
2019-03-30T08:46:38.905Z,69.83
2019-03-30T08:47:38.979Z,69.32
2019-03-30T08:48:38.889Z,69.70
2019-03-30T08:49:38.892Z,68.51
2019-03-30T08:50:38.857Z,69.70
2019-03-30T08:51:38.847Z,68.98
2019-03-30T08:52:38.860Z,69.49
2019-03-30T08:53:38.828Z,69.15
2019-03-30T08:54:38.832Z,69.06
2019-03-30T08:55:38.810Z,68.95
2019-03-30T08:56:38.793Z,69.15
2019-03-30T08:57:38.789Z,68.65
2019-03-30T08:58:38.767Z,68.44
2019-03-30T08:59:38.774Z,68.13
2019-03-30T09:00:38.746Z,68.34
2019-03-30T09:01:38.740Z,68.75
2019-03-30T09:02:38.727Z,68.13
2019-03-30T09:03:38.716Z,67.90
2019-03-30T09:04:38.723Z,67.60
2019-03-30T09:05:38.699Z,67.80
2019-03-30T09:06:38.698Z,68.10
2019-03-30T09:07:38.664Z,68.10
2019-03-30T09:08:38.658Z,67.90
2019-03-30T09:09:38.676Z,66.68
2019-03-30T09:10:38.630Z,66.55
2019-03-30T09:11:38.621Z,66.55
2019-03-30T09:12:38.615Z,65.94
2019-03-30T09:13:38.603Z,66.21
2019-03-30T09:14:38.588Z,65.73
2019-03-30T09:15:38.608Z,65.53
2019-03-30T09:16:38.564Z,65.43
2019-03-30T09:17:38.556Z,65.91
2019-03-30T09:18:38.551Z,65.09
2019-03-30T09:19:38.531Z,65.60
2019-03-30T09:20:38.542Z,65.70
2019-03-30T09:21:38.514Z,65.91
2019-03-30T09:22:38.503Z,66.11
2019-03-30T09:23:38.491Z,66.11
2019-03-30T09:24:38.483Z,65.36
2019-03-30T09:25:38.479Z,65.47
2019-03-30T09:26:38.449Z,64.58
2019-03-30T09:27:38.443Z,64.38
2019-03-30T09:28:38.422Z,64.89
2019-03-30T09:29:38.423Z,65.16
2019-03-30T09:30:38.423Z,64.65
2019-03-30T09:31:38.401Z,64.35
2019-03-30T09:32:38.387Z,64.52
2019-03-30T09:33:38.376Z,64.96
2019-03-30T09:34:38.360Z,64.52
2019-03-30T09:35:38.370Z,64.32
2019-03-30T09:36:38.410Z,64.32
2019-03-30T09:37:38.329Z,64.62
2019-03-30T09:38:38.318Z,64.09
2019-03-30T09:39:38.311Z,63.17
2019-03-30T09:40:38.295Z,62.36
2019-03-30T09:41:38.387Z,62.33
2019-03-30T09:42:38.266Z,61.82
2019-03-30T09:43:38.267Z,61.93
2019-03-30T09:44:38.247Z,62.74
2019-03-30T09:45:38.236Z,62.13
2019-03-30T09:46:38.249Z,62.94
2019-03-30T09:47:38.212Z,61.41
2019-03-30T09:48:38.272Z,61.41
2019-03-30T09:49:38.194Z,60.40
2019-03-30T09:50:38.181Z,60.71
2019-03-30T09:51:38.190Z,61.52
2019-03-30T09:52:38.160Z,61.82
2019-03-30T09:53:38.144Z,61.18
2019-03-30T09:54:38.143Z,61.18
2019-03-30T09:55:38.640Z,61.29
2019-03-30T09:56:38.133Z,60.98
2019-03-30T09:57:38.103Z,60.78
2019-03-30T09:58:38.092Z,60.55
2019-03-30T09:59:38.084Z,60.75
2019-03-30T10:00:38.071Z,59.50
2019-03-30T10:01:38.085Z,57.73
2019-03-30T10:02:38.044Z,57.62
2019-03-30T10:03:38.031Z,58.23
2019-03-30T10:04:38.020Z,57.53
2019-03-30T10:05:38.008Z,57.02
2019-03-30T10:06:38.017Z,57.29
2019-03-30T10:07:37.989Z,56.84
2019-03-30T10:08:38.001Z,55.82
2019-03-30T10:09:37.962Z,55.65
2019-03-30T10:10:38.040Z,56.05
2019-03-30T10:11:37.960Z,55.73
2019-03-30T10:12:37.929Z,53.14
2019-03-30T10:13:37.919Z,53.45
2019-03-30T10:14:37.908Z,52.89
2019-03-30T10:15:37.920Z,51.98
2019-03-30T10:16:37.911Z,50.62
2019-03-30T10:17:37.876Z,50.10
2019-03-30T10:18:37.939Z,50.07
2019-03-30T10:19:37.858Z,50.02
2019-03-30T10:20:37.840Z,48.37
2019-03-30T10:21:37.867Z,48.05
2019-03-30T10:22:37.813Z,46.94
2019-03-30T10:23:37.809Z,47.64
2019-03-30T10:24:38.694Z,46.80
2019-03-30T10:25:37.788Z,45.45
2019-03-30T10:26:38.648Z,45.14
2019-03-30T10:27:37.758Z,45.22
2019-03-30T10:28:37.753Z,45.06
2019-03-30T10:29:37.774Z,43.24
2019-03-30T10:30:37.735Z,41.61
2019-03-30T10:31:37.732Z,41.41
2019-03-30T10:32:37.710Z,41.91
2019-03-30T10:33:37.688Z,41.52
2019-03-30T10:34:39.614Z,42.11
2019-03-30T10:35:37.708Z,41.19
2019-03-30T10:36:37.692Z,41.43
2019-03-30T10:37:37.656Z,41.38
2019-03-30T10:38:37.646Z,41.91
2019-03-30T10:39:37.646Z,41.51
2019-03-30T10:40:37.635Z,41.63
2019-03-30T10:41:37.624Z,42.13
2019-03-30T10:42:37.596Z,41.82
2019-03-30T10:43:37.584Z,41.69
2019-03-30T10:44:37.582Z,41.35
2019-03-30T10:45:37.558Z,41.21
2019-03-30T10:46:37.575Z,39.37
2019-03-30T10:47:37.542Z,39.50
2019-03-30T10:48:37.533Z,39.89
2019-03-30T10:49:37.548Z,39.28
2019-03-30T10:51:38.662Z,37.84
2019-03-30T10:52:37.488Z,37.84
2019-03-30T10:53:37.507Z,38.46
2019-03-30T10:54:51.671Z,37.23
2019-03-30T10:55:38.449Z,37.01
2019-03-30T10:56:37.541Z,36.09
2019-03-30T10:57:38.259Z,36.18
2019-03-30T10:58:37.420Z,36.89
2019-03-30T10:59:37.408Z,35.94
2019-03-30T11:00:37.403Z,35.11
2019-03-30T11:01:37.413Z,34.63
2019-03-30T11:02:38.172Z,35.24
2019-03-30T11:03:37.365Z,36.27
2019-03-30T11:04:38.245Z,37.10
2019-03-30T11:05:37.348Z,37.98
2019-03-30T11:06:37.358Z,39.01
2019-03-30T11:07:38.281Z,39.51
2019-03-30T11:09:38.472Z,37.44
2019-03-30T11:10:37.291Z,36.01
2019-03-30T11:11:37.301Z,36.25
2019-03-30T11:12:37.282Z,35.96
2019-03-30T11:13:37.269Z,35.31
2019-03-30T11:14:37.252Z,33.39
2019-03-30T11:15:37.240Z,32.82
2019-03-30T11:16:37.326Z,34.03
2019-03-30T11:17:37.222Z,33.39
2019-03-30T11:18:37.213Z,30.49
2019-03-30T11:19:37.228Z,31.30
2019-03-30T11:20:37.189Z,32.54
2019-03-30T11:21:37.197Z,33.07
2019-03-30T11:22:37.170Z,33.86
2019-03-30T11:23:37.162Z,32.95
2019-03-30T11:24:37.176Z,32.21
2019-03-30T11:25:37.137Z,30.96
2019-03-30T11:26:37.212Z,29.82
2019-03-30T11:27:37.111Z,29.36
2019-03-30T11:28:37.133Z,29.55
2019-03-30T11:29:37.098Z,30.41
2019-03-30T11:30:37.085Z,29.54
2019-03-30T11:31:37.116Z,28.97
2019-03-30T11:32:37.073Z,29.17
2019-03-30T11:33:37.049Z,28.64
2019-03-30T11:34:37.039Z,28.86
2019-03-30T11:35:37.033Z,29.19
2019-03-30T11:36:37.036Z,29.34
2019-03-30T11:37:37.013Z,28.90
2019-03-30T11:38:37.017Z,27.73
2019-03-30T11:39:36.992Z,28.23
2019-03-30T11:40:36.983Z,28.75
2019-03-30T11:41:37.006Z,28.42
2019-03-30T11:42:36.963Z,27.43
2019-03-30T11:43:36.958Z,28.20
2019-03-30T11:44:36.940Z,27.17
2019-03-30T11:45:36.934Z,27.21
2019-03-30T11:46:36.952Z,28.30
2019-03-30T11:47:36.934Z,26.90
2019-03-30T11:48:37.656Z,26.26
2019-03-30T11:49:36.894Z,26.42
2019-03-30T11:50:36.888Z,26.09
2019-03-30T11:51:36.881Z,25.62
2019-03-30T11:52:36.886Z,26.65
2019-03-30T11:53:36.853Z,27.93
2019-03-30T11:54:36.839Z,26.34
2019-03-30T11:55:36.834Z,26.51
2019-03-30T11:56:36.849Z,26.54
2019-03-30T11:57:36.848Z,28.69
2019-03-30T11:58:36.803Z,28.80
2019-03-30T11:59:36.793Z,28.78
2019-03-30T12:00:36.783Z,27.56
2019-03-30T12:01:36.778Z,28.45
2019-03-30T12:02:36.760Z,28.48
2019-03-30T12:03:36.777Z,28.79
2019-03-30T12:04:36.751Z,28.11
2019-03-30T12:05:36.743Z,29.07
2019-03-30T12:06:36.728Z,27.84
2019-03-30T12:07:36.759Z,27.84
2019-03-30T12:08:36.735Z,28.16
2019-03-30T12:09:36.704Z,27.90
2019-03-30T12:10:36.784Z,28.61
2019-03-30T12:11:36.705Z,29.23
2019-03-30T12:12:37.548Z,30.08
2019-03-30T12:13:36.675Z,30.36
2019-03-30T12:14:36.715Z,30.79
2019-03-30T12:15:36.637Z,30.94
2019-03-30T12:16:36.626Z,28.70
2019-03-30T12:17:36.655Z,28.39
2019-03-30T12:18:37.285Z,28.18
2019-03-30T12:19:36.633Z,28.28
2019-03-30T12:20:36.679Z,27.97
2019-03-30T12:21:36.602Z,27.93
2019-03-30T12:22:36.567Z,27.39
2019-03-30T12:23:36.564Z,25.99
2019-03-30T12:24:37.671Z,26.32
2019-03-30T12:25:36.542Z,27.04
2019-03-30T12:26:36.523Z,27.22
2019-03-30T12:27:36.517Z,27.34
2019-03-30T12:28:36.503Z,27.40
2019-03-30T12:29:36.518Z,28.80
2019-03-30T12:30:36.486Z,29.06
2019-03-30T12:31:36.489Z,26.84
2019-03-30T12:32:36.460Z,27.70
2019-03-30T12:33:36.454Z,26.35
2019-03-30T12:34:36.447Z,27.90
2019-03-30T12:35:36.454Z,28.32
2019-03-30T12:36:36.420Z,28.21
2019-03-30T12:37:36.426Z,28.17
2019-03-30T12:38:36.398Z,26.56
2019-03-30T12:39:36.394Z,27.06
2019-03-30T12:40:36.407Z,26.36
2019-03-30T12:41:36.394Z,27.60
2019-03-30T12:42:36.434Z,27.21
2019-03-30T12:43:39.043Z,27.86
2019-03-30T12:44:36.338Z,26.31
2019-03-30T12:45:36.333Z,26.60
2019-03-30T12:46:36.339Z,27.69
2019-03-30T12:47:36.342Z,26.70
2019-03-30T12:48:36.303Z,26.38
2019-03-30T12:49:36.296Z,24.86
2019-03-30T12:50:36.285Z,24.66
2019-03-30T12:51:36.296Z,24.29
2019-03-30T12:52:36.257Z,23.81
2019-03-30T12:53:49.136Z,24.30
2019-03-30T12:54:37.254Z,25.91